Time;durP1;ratioP1;P1;durP2;ratioP2;P2;SDS_P1;SDS_P2;PMS_P1;PMS_P2;Temp;Humidity;BMP_temperature;BMP_pressure;BME280_temperature;BME280_humidity;BME280_pressure;Samples;Min_cycle;Max_cycle;Signal;HPM_P1;HPM_P2
2024/01/14 00:00:32;;;;;;;37.92;17.70;;;;;;;-0.08;100.00;100484.25;5027058;28;20042;-69
2024/01/14 00:03:01;;;;;;;35.97;16.75;;;;;;;-0.08;100.00;100492.03;5045994;28;20437;-69
2024/01/14 00:05:30;;;;;;;35.95;16.58;;;;;;;-0.04;100.00;100480.75;5025388;28;20045;-69
2024/01/14 00:07:59;;;;;;;34.72;16.65;;;;;;;0.00;100.00;100466.88;5026750;28;20048;-71
2024/01/14 00:10:31;;;;;;;34.13;15.98;;;;;;;0.11;100.00;100480.72;5045725;28;20514;-72
2024/01/14 00:12:59;;;;;;;32.80;16.23;;;;;;;0.12;100.00;100465.97;5042982;28;20046;-70
2024/01/14 00:15:29;;;;;;;33.67;16.20;;;;;;;0.15;100.00;100478.97;5029551;28;20140;-72
2024/01/14 00:17:57;;;;;;;32.42;16.38;;;;;;;0.23;100.00;100469.38;5005922;28;20064;-70
2024/01/14 00:20:27;;;;;;;33.85;15.73;;;;;;;0.24;100.00;100464.16;5030715;28;20502;-73
2024/01/14 00:22:56;;;;;;;33.22;16.50;;;;;;;0.23;100.00;100464.19;5034613;28;20051;-72
2024/01/14 00:25:24;;;;;;;35.22;16.65;;;;;;;0.12;100.00;100452.94;5033973;28;20133;-72
2024/01/14 00:27:54;;;;;;;35.75;17.10;;;;;;;0.15;100.00;100453.81;5029982;28;20132;-71
2024/01/14 00:30:26;;;;;;;32.53;15.77;;;;;;;0.14;100.00;100446.00;5028889;28;20061;-71
2024/01/14 00:32:55;;;;;;;31.45;15.88;;;;;;;0.16;100.00;100442.47;5042340;28;20141;-74
2024/01/14 00:35:25;;;;;;;35.63;16.98;;;;;;;0.17;100.00;100451.16;5039756;28;20073;-70
2024/01/14 00:37:56;;;;;;;32.22;14.98;;;;;;;0.11;100.00;100440.78;5024027;28;20048;-69
2024/01/14 00:40:25;;;;;;;35.50;16.33;;;;;;;0.04;100.00;100437.34;5016808;28;20056;-70
2024/01/14 00:42:55;;;;;;;34.30;16.50;;;;;;;-0.02;100.00;100433.03;5036486;28;20038;-70
2024/01/14 00:45:22;;;;;;;34.20;16.20;;;;;;;0.03;100.00;100438.19;5026335;28;20044;-71
2024/01/14 00:47:50;;;;;;;34.38;16.13;;;;;;;0.05;100.00;100436.47;5041097;28;20503;-72
2024/01/14 00:50:19;;;;;;;32.45;15.65;;;;;;;0.06;100.00;100437.31;5026607;28;20061;-71
2024/01/14 00:52:49;;;;;;;33.35;16.48;;;;;;;0.03;100.00;100432.13;5028281;28;20060;-70
2024/01/14 00:55:19;;;;;;;34.88;16.17;;;;;;;0.11;100.00;100452.06;5031504;28;20114;-69
2024/01/14 00:57:48;;;;;;;33.15;16.88;;;;;;;0.20;100.00;100457.22;4993118;28;20099;-72
2024/01/14 01:00:18;;;;;;;36.80;15.63;;;;;;;0.07;100.00;100441.66;5029853;28;20414;-70
2024/01/14 01:02:46;;;;;;;33.40;16.05;;;;;;;0.15;100.00;100445.13;5027116;28;20124;-69
2024/01/14 01:05:15;;;;;;;34.45;16.38;;;;;;;0.25;100.00;100434.66;5024136;28;20779;-71
2024/01/14 01:07:46;;;;;;;30.63;15.35;;;;;;;0.32;100.00;100428.53;5011315;28;20038;-70
2024/01/14 01:10:16;;;;;;;33.78;15.88;;;;;;;0.15;100.00;100406.06;5044634;28;21998;-71
2024/01/14 01:12:46;;;;;;;26.67;11.40;;;;;;;0.22;100.00;100426.84;5040878;28;20038;-70
2024/01/14 01:15:15;;;;;;;34.97;16.67;;;;;;;0.23;100.00;100430.31;5029576;28;21742;-71
2024/01/14 01:17:44;;;;;;;28.92;15.18;;;;;;;-0.01;100.00;100380.09;5034234;28;20052;-68
2024/01/14 01:20:13;;;;;;;34.38;15.77;;;;;;;0.19;100.00;100413.84;5022693;28;20125;-71
2024/01/14 01:22:45;;;;;;;;;;;;;;;0.21;100.00;100419.03;5030548;28;20116;-70
2024/01/14 01:25:13;;;;;;;30.35;13.85;;;;;;;0.14;100.00;100420.81;5026561;28;19921;-70
2024/01/14 01:27:41;;;;;;;35.35;15.90;;;;;;;0.15;100.00;100412.16;5024569;28;20064;-69
2024/01/14 01:30:10;;;;;;;34.47;15.27;;;;;;;0.19;100.00;100415.56;5045134;28;20100;-70
2024/01/14 01:32:39;;;;;;;30.85;14.93;;;;;;;0.15;100.00;100401.72;5026881;28;20050;-69
2024/01/14 01:35:11;;;;;;;30.73;14.55;;;;;;;0.24;100.00;100401.66;5041953;28;20057;-69
2024/01/14 01:37:41;;;;;;;34.13;15.82;;;;;;;0.25;100.00;100403.41;5034884;28;20042;-71
2024/01/14 01:40:10;;;;;;;33.92;15.35;;;;;;;0.26;100.00;100394.72;5025576;28;20088;-69
2024/01/14 01:42:38;;;;;;;33.53;15.25;;;;;;;0.24;100.00;100380.84;5030402;28;20096;-71
2024/01/14 01:45:09;;;;;;;33.85;15.50;;;;;;;0.19;100.00;100382.59;5027191;28;20046;-70
2024/01/14 01:47:39;;;;;;;30.25;14.70;;;;;;;-0.02;100.00;100357.53;5028976;28;20071;-70
2024/01/14 01:50:11;;;;;;;37.22;15.45;;;;;;;0.21;100.00;100387.78;5011606;28;20573;-70
2024/01/14 01:52:41;;;;;;;35.92;16.75;;;;;;;0.22;100.00;100366.94;5024866;28;20060;-69
2024/01/14 01:55:11;;;;;;;;;;;;;;;0.18;100.00;100377.38;5029100;28;20056;-71
2024/01/14 01:57:40;;;;;;;35.25;14.52;;;;;;;0.12;100.00;100378.31;5031144;28;20293;-71
2024/01/14 02:00:12;;;;;;;34.08;15.65;;;;;;;0.10;100.00;100382.66;5029605;28;20037;-71
2024/01/14 02:02:42;;;;;;;32.95;15.82;;;;;;;-0.07;100.00;100387.06;5027570;28;20041;-69
2024/01/14 02:05:13;;;;;;;;;;;;;;;-0.17;100.00;100381.03;5034850;28;20056;-70
2024/01/14 02:07:41;;;;;;;36.03;15.18;;;;;;;-0.14;100.00;100375.78;5045691;28;20302;-69
2024/01/14 02:10:14;;;;;;;36.60;16.42;;;;;;;-0.13;100.00;100374.06;5022536;28;20037;-70
2024/01/14 02:12:42;;;;;;;35.65;16.75;;;;;;;-0.19;100.00;100338.53;5032754;28;20083;-70
2024/01/14 02:15:10;;;;;;;40.22;16.88;;;;;;;-0.08;100.00;100369.72;5027068;28;20040;-69
2024/01/14 02:17:41;;;;;;;39.47;16.67;;;;;;;-0.09;100.00;100365.38;5028994;28;20461;-67
2024/01/14 02:20:09;;;;;;;;;;;;;;;-0.07;100.00;100356.69;5021621;28;20033;-71
2024/01/14 02:22:41;;;;;;;35.42;16.85;;;;;;;-0.07;100.00;100348.88;5051445;28;19921;-69
2024/01/14 02:25:16;;;;;;;36.97;18.13;;;;;;;-0.13;100.00;100351.50;5024059;28;20044;-68
2024/01/14 02:27:48;;;;;;;40.92;18.40;;;;;;;-0.20;100.00;100349.81;5034939;28;20044;-71
2024/01/14 02:30:20;;;;;;;38.90;18.20;;;;;;;-0.25;100.00;100338.53;5026457;28;20048;-71
2024/01/14 02:32:55;;;;;;;43.08;18.70;;;;;;;-0.17;100.00;100339.41;5028851;28;20073;-71
2024/01/14 02:35:25;;;;;;;;;;;;;;;-0.09;100.00;100347.16;5041184;28;20084;-70
2024/01/14 02:37:55;;;;;;;43.78;18.55;;;;;;;-0.14;100.00;100341.09;5033133;28;19925;-69
2024/01/14 02:40:26;;;;;;;44.60;18.98;;;;;;;-0.17;100.00;100330.72;5022540;28;20064;-70
2024/01/14 02:42:56;;;;;;;42.78;19.42;;;;;;;-0.22;100.00;100324.66;5031483;28;20064;-68
2024/01/14 02:45:30;;;;;;;43.28;19.23;;;;;;;-0.17;100.00;100347.19;5041888;28;20053;-71
2024/01/14 02:48:00;;;;;;;44.05;19.35;;;;;;;-0.20;100.00;100351.56;5026748;28;20045;-70
2024/01/14 02:50:30;;;;;;;47.22;20.55;;;;;;;-0.22;100.00;100355.88;5038632;28;20045;-69
2024/01/14 02:52:59;;;;;;;43.40;19.65;;;;;;;-0.25;100.00;100353.28;5028389;28;20044;-69
2024/01/14 02:55:31;;;;;;;51.03;21.80;;;;;;;-0.45;100.00;100341.22;5044141;28;20053;-70
2024/01/14 02:58:05;;;;;;;47.05;20.33;;;;;;;-0.33;100.00;100329.06;5017559;28;20069;-71
2024/01/14 03:00:34;;;;;;;44.88;19.35;;;;;;;-0.27;100.00;100336.81;5034255;28;20049;-73
2024/01/14 03:03:03;;;;;;;44.25;18.50;;;;;;;-0.25;100.00;100335.06;5020206;28;20052;-70
2024/01/14 03:05:31;;;;;;;46.72;20.13;;;;;;;-0.22;100.00;100322.94;5030769;28;20172;-70
2024/01/14 03:08:01;;;;;;;42.80;19.13;;;;;;;-0.23;100.00;100309.91;5027743;28;20046;-70
2024/01/14 03:10:32;;;;;;;43.97;19.08;;;;;;;-0.15;100.00;100323.75;5023058;28;20045;-70
2024/01/14 03:13:00;;;;;;;42.95;18.45;;;;;;;-0.19;100.00;100307.31;5027908;28;20469;-71
2024/01/14 03:15:28;;;;;;;44.50;19.45;;;;;;;-0.20;100.00;100322.91;5028709;28;20327;-71
2024/01/14 03:17:57;;;;;;;40.05;18.70;;;;;;;-0.30;100.00;100316.00;5022628;28;20613;-70
2024/01/14 03:20:25;;;;;;;44.47;18.83;;;;;;;-0.41;100.00;100297.84;5017547;28;20419;-70
2024/01/14 03:22:55;;;;;;;41.85;18.48;;;;;;;-0.20;100.00;100315.97;5026400;28;20095;-69
2024/01/14 03:25:24;;;;;;;41.85;18.05;;;;;;;-0.23;100.00;100289.09;5027090;28;20061;-69
2024/01/14 03:27:53;;;;;;;36.53;17.13;;;;;;;-0.22;100.00;100288.22;5043444;28;20049;-70
2024/01/14 03:30:22;;;;;;;40.17;18.15;;;;;;;-0.23;100.00;100283.91;5036138;28;20060;-69
2024/01/14 03:32:50;;;;;;;44.42;18.50;;;;;;;-0.23;100.00;100283.91;5029236;28;20041;-71
2024/01/14 03:35:21;;;;;;;42.75;18.58;;;;;;;-0.21;100.00;100297.78;5028642;28;20044;-70
2024/01/14 03:37:51;;;;;;;40.58;18.48;;;;;;;-0.25;100.00;100285.63;5034367;28;20049;-69
2024/01/14 03:40:19;;;;;;;42.47;18.58;;;;;;;-0.30;100.00;100300.41;5036214;28;20052;-69
2024/01/14 03:42:47;;;;;;;42.33;18.90;;;;;;;-0.38;100.00;100297.84;5036279;28;20041;-69
2024/01/14 03:45:17;;;;;;;41.63;17.90;;;;;;;-0.34;100.00;100309.97;5032329;28;20049;-69
2024/01/14 03:47:45;;;;;;;45.63;18.10;;;;;;;-0.28;100.00;100302.13;5043332;28;20065;-70
2024/01/14 03:50:16;;;;;;;39.88;16.65;;;;;;;-0.40;100.00;100303.06;5025089;28;20470;-70
2024/01/14 03:52:44;;;;;;;44.30;17.55;;;;;;;-0.33;100.00;100282.22;5046033;28;20061;-71
2024/01/14 03:55:13;;;;;;;44.33;18.58;;;;;;;-0.22;100.00;100288.22;5034235;28;20153;-70
2024/01/14 03:57:42;;;;;;;42.05;18.27;;;;;;;-0.23;100.00;100286.50;5030875;28;20045;-67
2024/01/14 04:00:14;;;;;;;43.08;17.95;;;;;;;-0.21;100.00;100282.16;5040336;28;20414;-71
2024/01/14 04:02:43;;;;;;;44.27;17.80;;;;;;;-0.21;100.00;100261.34;5048322;28;20096;-70
2024/01/14 04:05:13;;;;;;;43.67;18.90;;;;;;;-0.22;100.00;100249.19;5026432;28;20479;-69
2024/01/14 04:07:41;;;;;;;42.00;17.38;;;;;;;-0.21;100.00;100241.38;5023462;28;20049;-69
2024/01/14 04:10:12;;;;;;;39.42;17.58;;;;;;;-0.27;100.00;100219.72;5022359;28;20458;-70
2024/01/14 04:12:44;;;;;;;43.67;17.60;;;;;;;-0.27;100.00;100227.53;5049607;28;20180;-69
2024/01/14 04:15:12;;;;;;;43.08;18.23;;;;;;;-0.30;100.00;100224.94;5030561;28;20052;-72
2024/01/14 04:17:43;;;;;;;42.05;17.33;;;;;;;-0.37;100.00;100222.41;5037852;28;20049;-72
2024/01/14 04:20:13;;;;;;;43.22;19.38;;;;;;;-0.40;100.00;100221.53;5035243;28;20045;-70
2024/01/14 04:22:42;;;;;;;45.63;18.95;;;;;;;-0.43;100.00;100217.22;5050126;28;20049;-70
2024/01/14 04:25:11;;;;;;;46.80;19.25;;;;;;;-0.48;100.00;100212.94;5017125;28;20413;-70
2024/01/14 04:27:39;;;;;;;43.03;19.00;;;;;;;-0.56;100.00;100215.56;5029539;28;20061;-71
2024/01/14 04:30:08;;;;;;;45.47;17.88;;;;;;;-0.51;100.00;100213.81;5022571;28;20045;-70
2024/01/14 04:32:39;;;;;;;44.83;19.63;;;;;;;-0.55;100.00;100225.09;5027567;28;20053;-69
2024/01/14 04:35:09;;;;;;;41.67;17.85;;;;;;;-0.64;100.00;100217.34;5030624;28;20152;-72
2024/01/14 04:37:37;;;;;;;44.30;18.33;;;;;;;-0.79;100.00;100205.25;5026638;28;20041;-69
2024/01/14 04:40:07;;;;;;;44.97;18.20;;;;;;;-0.72;100.00;100213.91;5022690;28;20530;-69
2024/01/14 04:42:36;;;;;;;41.65;18.27;;;;;;;-0.59;100.00;100218.16;5030511;28;20049;-71
2024/01/14 04:45:06;;;;;;;37.95;17.50;;;;;;;-0.51;100.00;100215.53;5045023;28;20053;-69
2024/01/14 04:47:35;;;;;;;39.85;17.52;;;;;;;-0.53;100.00;100212.06;5012341;28;20088;-70
2024/01/14 04:50:03;;;;;;;42.47;18.05;;;;;;;-0.56;100.00;100223.34;5021872;28;20049;-69
2024/01/14 04:52:33;;;;;;;42.22;16.80;;;;;;;-0.71;100.00;100213.88;5038847;28;20049;-71
2024/01/14 04:55:02;;;;;;;38.57;16.53;;;;;;;-0.67;100.00;100229.47;5026130;28;20464;-70
2024/01/14 04:57:33;;;;;;;40.88;17.88;;;;;;;-0.59;100.00;100233.75;5045241;28;20121;-69
2024/01/14 05:00:02;;;;;;;40.40;18.15;;;;;;;-0.54;100.00;100229.41;5017244;28;20403;-73
2024/01/14 05:02:30;;;;;;;40.33;17.13;;;;;;;-0.50;100.00;100220.72;5027911;28;20048;-69
2024/01/14 05:05:00;;;;;;;35.80;16.38;;;;;;;-0.53;100.00;100232.88;4992825;28;20110;-69
2024/01/14 05:07:33;;;;;;;44.17;18.50;;;;;;;-0.60;100.00;100216.44;5040256;28;20048;-69
2024/01/14 05:10:04;;;;;;;39.93;17.27;;;;;;;-0.61;100.00;100219.03;5034394;28;20056;-69
2024/01/14 05:12:32;;;;;;;42.78;18.05;;;;;;;-0.67;100.00;100214.75;5049154;28;20044;-69
2024/01/14 05:15:02;;;;;;;42.65;17.20;;;;;;;-0.77;100.00;100187.03;5025811;28;20428;-69
2024/01/14 05:17:30;;;;;;;37.75;16.38;;;;;;;-0.53;100.00;100202.53;5050658;28;20126;-69
2024/01/14 05:20:00;;;;;;;41.75;16.65;;;;;;;-0.43;100.00;100195.53;5005035;28;20045;-69
2024/01/14 05:22:29;;;;;;;38.80;17.35;;;;;;;-0.40;100.00;100208.53;5031828;28;20443;-70
2024/01/14 05:24:58;;;;;;;36.97;16.90;;;;;;;-0.43;100.00;100199.00;5040442;28;20057;-68
2024/01/14 05:27:27;;;;;;;41.65;17.83;;;;;;;-0.47;100.00;100194.69;5031379;28;20998;-69
2024/01/14 05:29:57;;;;;;;43.53;17.55;;;;;;;-0.54;100.00;100189.53;5016252;28;20038;-69
2024/01/14 05:32:26;;;;;;;41.75;16.95;;;;;;;-0.56;100.00;100173.94;5013998;28;20914;-69
2024/01/14 05:34:56;;;;;;;43.30;17.60;;;;;;;-0.61;100.00;100183.50;5005343;28;20201;-68
2024/01/14 05:37:24;;;;;;;37.13;16.38;;;;;;;-0.72;100.00;100156.69;5032252;28;20037;-69
2024/01/14 05:39:52;;;;;;;42.15;17.08;;;;;;;-0.52;100.00;100182.59;5016501;28;21349;-68
2024/01/14 05:42:22;;;;;;;40.83;16.75;;;;;;;-0.45;100.00;100171.28;5022911;28;20068;-69
2024/01/14 05:44:51;;;;;;;39.23;16.53;;;;;;;-0.40;100.00;100175.56;5032352;28;20041;-69
2024/01/14 05:47:20;;;;;;;36.85;15.65;;;;;;;-0.38;100.00;100180.78;5028529;28;20047;-69
2024/01/14 05:49:48;;;;;;;42.50;18.37;;;;;;;-0.53;100.00;100199.94;5002098;28;20105;-69
2024/01/14 05:52:17;;;;;;;39.78;16.85;;;;;;;-0.66;100.00;100190.47;5030797;28;20049;-69
2024/01/14 05:54:46;;;;;;;38.38;16.70;;;;;;;-0.67;100.00;100174.88;5024895;28;20493;-70
2024/01/14 05:57:14;;;;;;;39.42;15.82;;;;;;;-0.63;100.00;100177.44;5030532;28;20072;-70
2024/01/14 05:59:49;;;;;;;40.03;17.20;;;;;;;-0.65;100.00;100189.59;5042885;28;20103;-69
2024/01/14 06:02:18;;;;;;;37.58;16.52;;;;;;;-0.74;100.00;100172.28;5041660;28;20160;-70
2024/01/14 06:04:47;;;;;;;40.47;17.00;;;;;;;-0.66;100.00;100166.22;5028951;28;20417;-71
2024/01/14 06:07:18;;;;;;;40.38;16.50;;;;;;;-0.57;100.00;100176.53;5032519;28;20077;-70
2024/01/14 06:09:47;;;;;;;42.50;17.30;;;;;;;-0.72;100.00;100154.09;5006696;28;20049;-69
2024/01/14 06:12:15;;;;;;;41.30;17.33;;;;;;;-0.60;100.00;100172.22;5042190;28;20043;-70
2024/01/14 06:14:45;;;;;;;40.97;17.52;;;;;;;-0.56;100.00;100166.13;5026093;28;20049;-69
2024/01/14 06:17:15;;;;;;;41.03;17.42;;;;;;;-0.72;100.00;100151.50;5025055;28;20057;-68
2024/01/14 06:19:45;;;;;;;41.15;16.42;;;;;;;-0.63;100.00;100171.41;5019983;28;20050;-70
2024/01/14 06:22:14;;;;;;;37.88;16.33;;;;;;;-0.64;100.00;100167.06;5036920;28;20045;-70
2024/01/14 06:24:44;;;;;;;38.83;17.25;;;;;;;-0.60;100.00;100167.03;5000465;28;20135;-68
2024/01/14 06:27:14;;;;;;;;;;;;;;;-0.59;100.00;100166.16;5019863;28;20597;-68
2024/01/14 06:29:42;;;;;;;43.25;17.08;;;;;;;-0.63;100.00;100161.00;5025176;28;20003;-69
2024/01/14 06:32:10;;;;;;;39.38;16.70;;;;;;;-0.64;100.00;100169.66;5034647;28;20041;-70
2024/01/14 06:34:41;;;;;;;45.92;17.65;;;;;;;-0.78;100.00;100183.56;5047926;28;20565;-68
2024/01/14 06:37:10;;;;;;;46.10;18.45;;;;;;;-0.88;100.00;100187.09;5019674;28;20055;-72
2024/01/14 06:39:39;;;;;;;44.22;19.05;;;;;;;-0.96;100.00;100195.81;5046196;28;20057;-70
2024/01/14 06:42:07;;;;;;;34.15;14.90;;;;;;;-0.99;100.00;100190.59;5023563;28;20131;-71
2024/01/14 06:44:40;;;;;;;50.10;19.77;;;;;;;-0.95;100.00;100192.34;5045406;28;20065;-71
2024/01/14 06:47:08;;;;;;;45.80;19.60;;;;;;;-0.91;100.00;100188.84;5046082;28;20044;-69
2024/01/14 06:49:36;;;;;;;41.72;17.88;;;;;;;-0.91;100.00;100191.44;5030221;28;20057;-68
2024/01/14 06:52:08;;;;;;;50.50;20.00;;;;;;;-0.84;100.00;100185.34;5010003;28;20160;-70
2024/01/14 06:54:39;;;;;;;50.40;20.42;;;;;;;-0.72;100.00;100182.69;5035787;28;20061;-70
2024/01/14 06:57:08;;;;;;;46.42;20.02;;;;;;;-0.75;100.00;100172.31;5045322;28;20053;-69
2024/01/14 06:59:37;;;;;;;53.40;21.83;;;;;;;-0.56;100.00;100181.75;5043818;28;20049;-69
2024/01/14 07:02:06;;;;;;;57.30;22.45;;;;;;;-0.53;100.00;100175.66;5023766;28;20045;-68
2024/01/14 07:04:37;;;;;;;54.60;21.90;;;;;;;-0.56;100.00;100160.94;5029000;28;20036;-69
2024/01/14 07:07:07;;;;;;;54.53;21.88;;;;;;;-0.54;100.00;100159.19;5034812;28;20529;-71
2024/01/14 07:09:35;;;;;;;56.60;23.67;;;;;;;-0.63;100.00;100161.81;5034119;28;20572;-70
2024/01/14 07:12:04;;;;;;;62.35;23.20;;;;;;;-0.67;100.00;100146.28;5042201;28;20048;-71
2024/01/14 07:14:32;;;;;;;57.22;23.23;;;;;;;-0.54;100.00;100169.59;5021105;28;20081;-71
2024/01/14 07:17:00;;;;;;;54.60;24.08;;;;;;;-0.64;100.00;100151.47;5045597;28;20056;-71
2024/01/14 07:19:28;;;;;;;61.85;25.00;;;;;;;-0.53;100.00;100173.06;5046858;28;20144;-70
2024/01/14 07:21:57;;;;;;;63.50;24.02;;;;;;;-0.60;100.00;100155.75;5020770;28;20033;-69
2024/01/14 07:24:26;;;;;;;61.55;23.85;;;;;;;-0.62;100.00;100160.09;5017865;28;20048;-70
2024/01/14 07:26:55;;;;;;;63.75;25.08;;;;;;;-0.55;100.00;100167.88;5025349;28;20128;-71
2024/01/14 07:29:24;;;;;;;62.88;24.25;;;;;;;-0.53;100.00;100166.13;5027468;28;20049;-70
2024/01/14 07:31:54;;;;;;;64.85;25.40;;;;;;;-0.49;100.00;100160.03;5032808;28;20100;-71
2024/01/14 07:34:22;;;;;;;70.45;26.10;;;;;;;-0.58;100.00;100162.69;5042643;28;20053;-71
2024/01/14 07:36:51;;;;;;;57.97;25.65;;;;;;;-0.73;100.00;100161.03;5036455;28;20103;-70
2024/01/14 07:39:19;;;;;;;59.22;23.63;;;;;;;-0.89;100.00;100167.16;5022936;28;20045;-71
2024/01/14 07:41:49;;;;;;;64.22;24.48;;;;;;;-0.99;100.00;100160.28;5021266;28;20033;-69
2024/01/14 07:44:17;;;;;;;50.30;19.92;;;;;;;-1.18;100.00;100148.22;5028961;28;20107;-70
2024/01/14 07:46:46;;;;;;;62.78;24.55;;;;;;;-1.24;100.00;100143.91;5023511;28;20037;-70
2024/01/14 07:49:14;;;;;;;68.38;26.25;;;;;;;-1.15;100.00;100159.47;5044110;28;20060;-70
2024/01/14 07:51:42;;;;;;;63.15;24.48;;;;;;;-1.20;100.00;100155.16;5034170;28;20058;-71
2024/01/14 07:54:10;;;;;;;62.90;25.60;;;;;;;-1.11;100.00;100143.03;5031420;28;20065;-71
2024/01/14 07:56:39;;;;;;;64.13;23.50;;;;;;;-0.92;100.00;100158.50;5044005;28;20041;-70
2024/01/14 07:59:12;;;;;;;67.70;24.92;;;;;;;-0.94;100.00;100147.25;5020073;28;20049;-70
2024/01/14 08:01:41;;;;;;;60.95;23.95;;;;;;;-1.02;100.00;100164.63;5023422;28;20527;-68
2024/01/14 08:04:09;;;;;;;71.65;25.05;;;;;;;-1.25;100.00;100136.13;5047644;28;20075;-71
2024/01/14 08:06:38;;;;;;;65.32;25.17;;;;;;;-1.22;100.00;100162.09;5047701;28;20584;-70
2024/01/14 08:09:09;;;;;;;68.32;24.80;;;;;;;-1.27;100.00;100154.34;5039700;28;20049;-71
2024/01/14 08:11:37;;;;;;;70.03;26.20;;;;;;;-1.19;100.00;100146.50;5029347;28;20057;-71
2024/01/14 08:14:07;;;;;;;62.90;23.75;;;;;;;-1.25;100.00;100142.19;5030140;28;20110;-69
2024/01/14 08:16:37;;;;;;;65.57;24.10;;;;;;;-1.22;100.00;100147.38;5046097;28;20046;-70
2024/01/14 08:19:05;;;;;;;64.40;23.90;;;;;;;-1.27;100.00;100122.28;5034840;28;20519;-70
2024/01/14 08:21:33;;;;;;;63.70;24.30;;;;;;;-1.10;100.00;100146.44;5022635;28;20046;-70
2024/01/14 08:24:03;;;;;;;61.97;23.90;;;;;;;-0.89;100.00;100148.97;5050399;28;20045;-71
2024/01/14 08:26:33;;;;;;;59.55;22.52;;;;;;;-0.89;100.00;100145.50;5031127;28;20037;-71
2024/01/14 08:29:02;;;;;;;59.92;23.27;;;;;;;-1.05;100.00;100142.13;5014711;28;20099;-70
2024/01/14 08:31:46;;;;;;;61.83;22.73;;;;;;;-1.21;100.00;100127.44;5017800;28;20045;-69
2024/01/14 08:34:16;;;;;;;61.95;23.20;;;;;;;-1.08;100.00;100139.53;5023453;28;20072;-71
2024/01/14 08:36:46;;;;;;;64.07;24.15;;;;;;;-1.17;100.00;100140.44;5052361;28;20049;-69
2024/01/14 08:39:15;;;;;;;61.95;23.45;;;;;;;-1.12;100.00;100132.63;5026821;28;20044;-70
2024/01/14 08:41:46;;;;;;;59.00;22.50;;;;;;;-1.07;100.00;100136.06;5025569;28;20533;-71
2024/01/14 08:44:16;;;;;;;45.83;18.85;;;;;;;-1.00;100.00;100131.72;5028998;28;20053;-70
2024/01/14 08:46:54;;;;;;;66.13;23.10;;;;;;;-1.03;100.00;100105.72;5027392;28;20075;-71
2024/01/14 08:49:29;;;;;;;65.05;23.83;;;;;;;-0.89;100.00;100125.56;5030837;28;20049;-71
2024/01/14 08:51:58;;;;;;;63.03;23.10;;;;;;;-0.85;100.00;100122.09;5040426;28;20061;-70
2024/01/14 08:54:27;;;;;;;62.45;23.65;;;;;;;-0.77;100.00;100114.25;5008187;28;20060;-71
2024/01/14 08:56:56;;;;;;;60.65;23.58;;;;;;;-0.84;100.00;100102.16;5028048;28;20052;-72
2024/01/14 08:59:24;;;;;;;54.70;21.20;;;;;;;-0.85;100.00;100109.09;5030839;28;20132;-69
2024/01/14 09:01:54;;;;;;;61.10;24.23;;;;;;;-0.85;100.00;100122.09;5016165;28;20046;-71
2024/01/14 09:04:24;;;;;;;51.53;17.00;;;;;;;-1.00;100.00;100116.13;5034146;28;20053;-69
2024/01/14 09:06:52;;;;;;;57.42;21.35;;;;;;;-0.93;100.00;100121.25;5052645;28;20546;-72
2024/01/14 09:09:20;;;;;;;60.92;22.52;;;;;;;-0.92;100.00;100124.72;5050357;28;20126;-69
2024/01/14 09:11:48;;;;;;;61.72;23.15;;;;;;;-0.98;100.00;100114.38;5046336;28;20049;-70
2024/01/14 09:14:18;;;;;;;64.63;25.00;;;;;;;-0.98;100.00;100127.38;5060515;28;20059;-71
2024/01/14 09:16:48;;;;;;;60.38;22.50;;;;;;;-0.97;100.00;100131.69;5040910;28;20157;-71
2024/01/14 09:19:20;;;;;;;57.15;22.17;;;;;;;-1.03;100.00;100113.53;5055253;28;20037;-69
2024/01/14 09:21:49;;;;;;;59.40;21.47;;;;;;;-1.06;100.00;100125.66;5018060;28;20084;-69
2024/01/14 09:24:19;;;;;;;49.80;18.52;;;;;;;-1.14;100.00;100129.16;5036057;28;20092;-69
2024/01/14 09:26:47;;;;;;;57.53;21.58;;;;;;;-1.07;100.00;100126.53;5028730;28;20049;-70
2024/01/14 09:29:15;;;;;;;57.05;21.15;;;;;;;-0.99;100.00;100123.03;5026972;28;20707;-70
2024/01/14 09:31:46;;;;;;;64.80;23.50;;;;;;;-0.95;100.00;100129.97;5040024;28;20547;-71
2024/01/14 09:34:16;;;;;;;59.03;22.52;;;;;;;-0.95;100.00;100125.63;5034176;28;20069;-70
2024/01/14 09:36:48;;;;;;;58.40;21.95;;;;;;;-0.97;100.00;100126.50;5023853;28;20510;-70
2024/01/14 09:39:16;;;;;;;58.20;20.77;;;;;;;-0.86;100.00;100122.97;5028421;28;20117;-70
2024/01/14 09:41:54;;;;;;;54.67;20.40;;;;;;;-0.69;100.00;100135.00;5020242;28;20631;-70
2024/01/14 09:44:21;;;;;;;57.30;20.15;;;;;;;-0.68;100.00;100124.59;5043257;28;20045;-71
2024/01/14 09:46:52;;;;;;;54.30;20.08;;;;;;;-0.70;100.00;100128.94;5040931;28;20046;-70
2024/01/14 09:49:25;;;;;;;52.88;20.73;;;;;;;-0.54;100.00;100119.31;5023625;28;20058;-72
2024/01/14 09:51:56;;;;;;;49.28;20.17;;;;;;;-0.52;100.00;100108.03;5022130;28;20049;-70
2024/01/14 09:54:26;;;;;;;46.60;18.97;;;;;;;-0.44;100.00;100106.22;5045425;28;20049;-74
2024/01/14 09:56:59;;;;;;;38.33;14.98;;;;;;;-0.31;100.00;100116.53;5026368;28;20029;-73
2024/01/14 09:59:30;;;;;;;49.33;19.55;;;;;;;-0.32;100.00;100127.84;5010887;28;20100;-72
2024/01/14 10:01:59;;;;;;;54.45;20.48;;;;;;;-0.52;100.00;100122.78;5018394;28;20038;-69
2024/01/14 10:04:27;;;;;;;56.25;20.33;;;;;;;-0.65;100.00;100122.00;5038218;28;20038;-70
2024/01/14 10:06:57;;;;;;;54.75;19.38;;;;;;;-0.54;100.00;100125.38;5026671;28;21349;-70
2024/01/14 10:09:27;;;;;;;50.80;19.52;;;;;;;-0.49;100.00;100121.03;5022318;28;20045;-72
2024/01/14 10:11:56;;;;;;;50.05;19.50;;;;;;;-0.52;100.00;100099.38;5008070;28;20056;-71
2024/01/14 10:14:26;;;;;;;52.22;19.27;;;;;;;-0.35;100.00;100107.91;5019231;28;20528;-71
2024/01/14 10:16:56;;;;;;;48.28;18.88;;;;;;;-0.27;100.00;100107.84;5025451;28;20152;-71
2024/01/14 10:19:24;;;;;;;50.30;20.63;;;;;;;-0.20;100.00;100105.19;5045242;28;20069;-71
2024/01/14 10:21:54;;;;;;;48.88;18.98;;;;;;;-0.26;100.00;100099.16;5010495;28;20656;-70
2024/01/14 10:24:49;;;;;;;48.47;20.00;;;;;;;-0.25;100.00;100087.88;5038327;28;20067;-71
2024/01/14 10:27:18;;;;;;;46.35;18.45;;;;;;;-0.37;100.00;100091.47;5027508;28;20456;-71
2024/01/14 10:30:05;;;;;;;47.70;18.60;;;;;;;-0.27;100.00;100084.44;5025670;28;20041;-72
2024/01/14 10:32:35;;;;;;;54.95;19.92;;;;;;;-0.17;100.00;100073.94;5032936;28;20161;-70
2024/01/14 10:35:25;;;;;;;51.08;19.42;;;;;;;-0.09;100.00;100068.66;5021962;28;20449;-71
2024/01/14 10:37:54;;;;;;;46.40;18.83;;;;;;;-0.12;100.00;100069.53;5043180;28;20049;-70
2024/01/14 10:40:26;;;;;;;48.88;18.80;;;;;;;-0.10;100.00;100046.13;5029124;28;20055;-69
2024/01/14 10:42:57;;;;;;;49.10;18.92;;;;;;;-0.19;100.00;100057.47;5033371;28;20168;-69
2024/01/14 10:45:27;;;;;;;51.08;19.73;;;;;;;-0.31;100.00;100052.34;5035550;28;20068;-69
2024/01/14 10:47:57;;;;;;;51.17;19.80;;;;;;;-0.39;100.00;100055.03;5034426;28;20128;-71
2024/01/14 10:50:28;;;;;;;50.85;20.67;;;;;;;-0.41;100.00;100051.59;5042995;28;20061;-69
2024/01/14 10:53:18;;;;;;;56.80;20.75;;;;;;;-0.36;100.00;100043.75;5002112;28;20056;-70
2024/01/14 10:55:51;;;;;;;60.97;21.30;;;;;;;-0.30;100.00;100040.22;5029057;28;20514;-70
2024/01/14 10:58:25;;;;;;;51.22;20.20;;;;;;;-0.33;100.00;100037.66;5043802;28;20498;-69
2024/01/14 11:00:58;;;;;;;50.70;20.17;;;;;;;-0.19;100.00;100033.19;5028144;28;20049;-71
2024/01/14 11:03:30;;;;;;;56.42;21.13;;;;;;;-0.06;100.00;100032.19;5024035;28;20065;-69
2024/01/14 11:06:00;;;;;;;47.28;19.33;;;;;;;-0.13;100.00;100031.38;5027885;28;20145;-71
2024/01/14 11:08:28;;;;;;;52.08;20.35;;;;;;;-0.22;100.00;100034.09;5035472;28;20403;-69
2024/01/14 11:10:59;;;;;;;52.38;20.38;;;;;;;-0.25;100.00;100025.44;5025365;28;20141;-72
2024/01/14 11:13:38;;;;;;;51.60;20.58;;;;;;;-0.22;100.00;100009.81;5039430;28;20045;-71
2024/01/14 11:16:14;;;;;;;52.97;19.58;;;;;;;-0.28;100.00;100010.72;5020321;28;20475;-70